createdAt,value
2022-09-28T00:02:19.518Z,8.30
2022-09-28T00:04:45.999Z,8.31
2022-09-28T00:07:12.365Z,8.30
2022-09-28T00:09:38.739Z,8.32
2022-09-28T00:12:06.637Z,8.32
2022-09-28T00:14:32.989Z,8.34
2022-09-28T00:16:59.506Z,8.34
2022-09-28T00:19:25.865Z,8.34
2022-09-28T00:21:52.222Z,8.34
2022-09-28T00:24:25.203Z,8.36
2022-09-28T00:26:58.047Z,8.37
2022-09-28T00:29:26.907Z,8.38
2022-09-28T00:31:59.732Z,8.35
2022-09-28T00:34:27.266Z,8.33
2022-09-28T00:36:53.641Z,8.37
2022-09-28T00:39:20.102Z,8.38
2022-09-28T00:41:47.188Z,8.39
2022-09-28T00:44:22.450Z,8.40
2022-09-28T00:46:52.857Z,8.43
2022-09-28T00:49:27.383Z,8.47
2022-09-28T00:51:54.511Z,8.49
2022-09-28T00:54:21.903Z,8.52
2022-09-28T00:56:48.889Z,8.56
2022-09-28T00:59:16.169Z,8.57
2022-09-28T01:01:42.620Z,8.59
2022-09-28T01:04:09.190Z,8.60
2022-09-28T01:06:38.239Z,8.62
2022-09-28T01:09:08.499Z,8.63
2022-09-28T01:11:38.701Z,8.66
2022-09-28T01:14:11.416Z,8.67
2022-09-28T01:16:49.515Z,8.65
2022-09-28T01:20:06.753Z,8.65
2022-09-28T01:22:35.199Z,8.63
2022-09-28T01:25:16.613Z,8.62
2022-09-28T01:27:49.526Z,8.63
2022-09-28T01:30:20.272Z,8.65
2022-09-28T01:33:03.997Z,8.67
2022-09-28T01:35:47.553Z,8.69
2022-09-28T01:38:25.122Z,8.65
2022-09-28T01:40:53.642Z,8.67
2022-09-28T01:43:24.992Z,8.67
2022-09-28T01:45:57.821Z,8.67
2022-09-28T01:48:49.139Z,8.67
2022-09-28T01:51:25.765Z,8.70
2022-09-28T01:53:57.346Z,8.68
2022-09-28T01:56:30.750Z,8.70
2022-09-28T01:59:07.749Z,8.69
2022-09-28T02:01:41.401Z,8.70
2022-09-28T02:04:40.968Z,8.75
2022-09-28T02:07:16.348Z,8.74
2022-09-28T02:09:47.703Z,8.75
2022-09-28T02:12:27.314Z,8.74
2022-09-28T02:15:00.609Z,8.70
2022-09-28T02:17:27.612Z,8.69
2022-09-28T02:19:54.001Z,8.71
2022-09-28T02:22:40.587Z,8.72
2022-09-28T02:25:36.801Z,8.72
2022-09-28T02:28:10.939Z,8.71
2022-09-28T02:30:40.293Z,8.74
2022-09-28T02:33:14.082Z,8.75
2022-09-28T02:35:42.846Z,8.77
2022-09-28T02:38:14.426Z,8.78
2022-09-28T02:40:45.852Z,8.79
2022-09-28T02:43:26.879Z,8.80
2022-09-28T02:46:10.778Z,8.74
2022-09-28T02:49:21.657Z,8.75
2022-09-28T02:52:12.306Z,8.75
2022-09-28T02:55:03.076Z,8.76
2022-09-28T02:57:59.955Z,8.77
2022-09-28T03:00:27.366Z,8.78
2022-09-28T03:03:00.413Z,8.79
2022-09-28T03:05:47.518Z,8.79
2022-09-28T03:08:22.063Z,8.81
2022-09-28T03:10:58.614Z,8.81
2022-09-28T03:13:27.130Z,8.82
2022-09-28T03:16:12.488Z,8.81
2022-09-28T03:18:41.189Z,8.84
2022-09-28T03:21:09.205Z,8.86
2022-09-28T03:23:35.634Z,8.86
2022-09-28T03:26:02.465Z,8.89
2022-09-28T03:28:30.053Z,8.93
2022-09-28T03:30:57.410Z,8.94
2022-09-28T03:33:23.811Z,8.94
2022-09-28T03:35:50.847Z,8.96
2022-09-28T03:38:18.638Z,8.94
2022-09-28T03:40:56.020Z,8.95
2022-09-28T03:43:23.801Z,8.98
2022-09-28T03:45:56.602Z,8.96
2022-09-28T03:48:31.207Z,8.97
2022-09-28T03:51:01.126Z,8.95
2022-09-28T03:53:29.473Z,8.97
2022-09-28T03:56:02.023Z,8.98
2022-09-28T03:58:28.868Z,8.98
2022-09-28T04:00:55.454Z,8.99
2022-09-28T04:03:21.874Z,9.02
2022-09-28T04:05:52.606Z,9.00
2022-09-28T04:08:19.799Z,9.01
2022-09-28T04:10:46.738Z,9.01
2022-09-28T04:13:13.257Z,9.01
2022-09-28T04:15:40.890Z,9.01
2022-09-28T04:18:12.338Z,8.97
2022-09-28T04:21:11.869Z,9.00
2022-09-28T04:23:44.693Z,8.99
2022-09-28T04:26:16.661Z,9.01
2022-09-28T04:29:06.618Z,9.02
2022-09-28T04:31:42.616Z,9.00
2022-09-28T04:34:09.347Z,9.03
2022-09-28T04:36:35.769Z,9.05
2022-09-28T04:39:02.197Z,9.07
2022-09-28T04:41:30.437Z,9.09
2022-09-28T04:43:56.807Z,9.10
2022-09-28T04:46:26.078Z,9.11
2022-09-28T04:49:12.547Z,9.13
2022-09-28T04:51:52.106Z,9.14
2022-09-28T04:54:18.769Z,9.16
2022-09-28T04:56:45.386Z,9.17
2022-09-28T04:59:13.410Z,9.19
2022-09-28T05:01:41.571Z,9.18
2022-09-28T05:04:26.429Z,9.21
2022-09-28T05:07:11.512Z,9.22
2022-09-28T05:09:38.664Z,9.22
2022-09-28T05:12:05.301Z,9.22
2022-09-28T05:14:31.671Z,9.23
2022-09-28T05:16:58.217Z,9.24
2022-09-28T05:19:27.448Z,9.25
2022-09-28T05:22:03.889Z,9.24
2022-09-28T05:24:35.033Z,9.21
2022-09-28T05:27:01.421Z,9.19
2022-09-28T05:29:32.257Z,9.19
2022-09-28T05:32:17.657Z,9.21
2022-09-28T05:34:57.348Z,9.20
2022-09-28T05:37:28.857Z,9.21
2022-09-28T05:39:55.327Z,9.21
2022-09-28T05:42:21.691Z,9.21
2022-09-28T05:44:48.198Z,9.21
2022-09-28T05:47:14.588Z,9.14
2022-09-28T05:49:41.045Z,8.99
2022-09-28T05:52:07.441Z,8.92
2022-09-28T05:54:37.211Z,8.82
2022-09-28T05:57:05.170Z,8.75
2022-09-28T05:59:31.560Z,8.69
2022-09-28T06:01:58.003Z,8.66
2022-09-28T06:04:24.405Z,8.60
2022-09-28T06:06:50.972Z,8.56
2022-09-28T06:09:17.728Z,8.53
2022-09-28T06:12:13.076Z,8.48
2022-09-28T06:14:44.671Z,8.46
2022-09-28T06:17:11.679Z,8.43
2022-09-28T06:19:38.947Z,8.44
2022-09-28T06:22:24.583Z,8.41
2022-09-28T06:25:05.638Z,8.40
2022-09-28T06:27:33.412Z,8.38
2022-09-28T06:30:00.756Z,8.39
2022-09-28T06:32:29.170Z,8.41
2022-09-28T06:34:56.645Z,8.42
2022-09-28T06:37:27.173Z,8.38
2022-09-28T06:39:55.104Z,8.37
2022-09-28T06:42:21.948Z,8.36
2022-09-28T06:45:07.895Z,8.36
2022-09-28T06:47:56.627Z,8.35
2022-09-28T06:50:37.423Z,8.34
2022-09-28T06:53:33.161Z,8.34
2022-09-28T06:56:11.306Z,8.32
2022-09-28T06:58:37.758Z,8.32
2022-09-28T07:01:04.473Z,8.32
2022-09-28T07:03:40.807Z,8.34
2022-09-28T07:06:23.995Z,8.36
2022-09-28T07:09:27.899Z,8.35
2022-09-28T07:12:18.861Z,8.36
2022-09-28T07:14:57.426Z,8.39
2022-09-28T07:17:26.272Z,8.37
2022-09-28T07:19:58.722Z,8.39
2022-09-28T07:22:38.859Z,8.37
2022-09-28T07:25:08.973Z,8.44
2022-09-28T07:27:47.090Z,8.44
2022-09-28T07:30:29.329Z,8.48
2022-09-28T07:33:03.996Z,8.56
2022-09-28T07:36:06.478Z,8.57
2022-09-28T07:38:34.300Z,8.62
2022-09-28T07:41:14.073Z,8.67
2022-09-28T07:43:46.466Z,8.77
2022-09-28T07:46:13.003Z,8.85
2022-09-28T07:48:49.413Z,8.95
2022-09-28T07:51:24.160Z,9.03
2022-09-28T07:54:00.340Z,9.09
2022-09-28T07:56:43.197Z,9.13
2022-09-28T07:59:18.615Z,9.13
2022-09-28T08:02:05.350Z,9.06
2022-09-28T08:04:31.798Z,9.04
2022-09-28T08:07:00.262Z,9.05
2022-09-28T08:09:26.651Z,9.05
2022-09-28T08:12:12.813Z,9.00
2022-09-28T08:14:42.130Z,8.97
2022-09-28T08:17:27.274Z,8.99
2022-09-28T08:20:15.242Z,8.97
2022-09-28T08:22:42.031Z,9.02
2022-09-28T08:25:08.836Z,9.14
2022-09-28T08:27:36.043Z,9.26
2022-09-28T08:30:03.861Z,9.38
2022-09-28T08:32:59.306Z,9.41
2022-09-28T08:35:45.885Z,9.47
2022-09-28T08:38:30.824Z,9.54
2022-09-28T08:41:41.958Z,9.55
2022-09-28T08:44:51.719Z,9.59
2022-09-28T08:48:12.432Z,9.71
2022-09-28T08:51:21.878Z,9.78
2022-09-28T08:54:18.550Z,9.79
2022-09-28T08:56:56.961Z,9.83
2022-09-28T08:59:25.024Z,9.82
2022-09-28T09:02:16.370Z,9.80
2022-09-28T09:04:43.230Z,9.79
2022-09-28T09:07:52.051Z,9.71
2022-09-28T09:10:44.014Z,9.65
2022-09-28T09:13:38.789Z,9.61
2022-09-28T09:16:36.293Z,9.58
2022-09-28T09:19:46.834Z,9.54
2022-09-28T09:22:38.593Z,9.49
2022-09-28T09:25:20.342Z,9.43
2022-09-28T09:28:15.836Z,9.37
2022-09-28T09:31:02.084Z,9.36
2022-09-28T09:34:05.959Z,9.44
2022-09-28T09:37:35.314Z,9.60
2022-09-28T09:40:32.186Z,9.69
2022-09-28T09:43:58.611Z,9.78
2022-09-28T09:46:52.560Z,9.76
2022-09-28T09:49:33.318Z,9.78
2022-09-28T09:52:10.023Z,9.74
2022-09-28T09:54:47.713Z,9.72
2022-09-28T09:57:39.409Z,9.73
2022-09-28T10:00:28.964Z,9.78
2022-09-28T10:03:19.483Z,9.75
2022-09-28T10:05:51.941Z,9.79
2022-09-28T10:08:20.780Z,9.84
2022-09-28T10:10:52.510Z,9.86
2022-09-28T10:13:20.527Z,9.88
2022-09-28T10:15:47.965Z,9.91
2022-09-28T10:18:21.486Z,9.96
2022-09-28T10:21:06.720Z,10.05
2022-09-28T10:23:57.333Z,10.13
2022-09-28T10:26:34.429Z,10.16
2022-09-28T10:29:04.920Z,10.22
2022-09-28T10:31:39.264Z,10.31
2022-09-28T10:34:17.090Z,10.37
2022-09-28T10:36:55.813Z,10.41
2022-09-28T10:39:28.580Z,10.40
2022-09-28T10:41:56.162Z,10.42
2022-09-28T10:44:27.166Z,10.47
2022-09-28T10:47:19.022Z,10.44
2022-09-28T10:49:49.217Z,10.40
2022-09-28T10:52:38.694Z,10.40
2022-09-28T10:55:20.552Z,10.35
2022-09-28T10:57:48.066Z,10.35
2022-09-28T11:00:42.896Z,10.42
2022-09-28T11:03:34.134Z,10.53
2022-09-28T11:06:08.661Z,10.53
2022-09-28T11:08:39.928Z,10.55
2022-09-28T11:11:14.272Z,10.58
2022-09-28T11:13:43.981Z,10.55
2022-09-28T11:16:25.876Z,10.55
2022-09-28T11:18:53.580Z,10.47
2022-09-28T11:21:31.090Z,10.40
2022-09-28T11:24:25.275Z,10.37
2022-09-28T11:26:59.104Z,10.38
2022-09-28T11:29:41.952Z,10.40
2022-09-28T11:32:21.774Z,10.42
2022-09-28T11:35:19.688Z,10.47
2022-09-28T11:37:53.598Z,10.48
2022-09-28T11:41:24.645Z,10.51
2022-09-28T11:44:17.859Z,10.55
2022-09-28T11:47:03.379Z,10.49
2022-09-28T11:49:38.755Z,10.46
2022-09-28T11:52:17.044Z,10.49
2022-09-28T11:54:50.574Z,10.53
2022-09-28T11:57:22.083Z,10.57
2022-09-28T12:00:01.853Z,10.56
2022-09-28T12:02:36.813Z,10.58
2022-09-28T12:05:20.679Z,10.63
2022-09-28T12:07:56.987Z,10.61
2022-09-28T12:10:51.126Z,10.63
2022-09-28T12:13:35.209Z,10.68
2022-09-28T12:16:32.613Z,10.70
2022-09-28T12:21:50.497Z,10.60
2022-09-28T12:24:49.049Z,10.60
2022-09-28T12:27:26.966Z,10.55
2022-09-28T12:30:19.202Z,10.57
2022-09-28T12:33:11.078Z,10.59
2022-09-28T12:35:58.493Z,10.65
2022-09-28T12:39:24.055Z,10.72
2022-09-28T12:42:07.947Z,10.78
2022-09-28T12:44:43.158Z,10.79
2022-09-28T12:47:31.274Z,10.77
2022-09-28T12:53:21.466Z,10.81
2022-09-28T12:55:50.972Z,10.84
2022-09-28T12:58:32.739Z,10.91
2022-09-28T13:01:26.824Z,10.95
2022-09-28T13:04:13.350Z,10.94
2022-09-28T13:07:14.556Z,10.95
2022-09-28T13:09:54.054Z,10.91
2022-09-28T13:12:39.086Z,10.86
2022-09-28T13:15:27.323Z,10.85
2022-09-28T13:18:11.900Z,10.85
2022-09-28T13:20:40.194Z,10.87
2022-09-28T13:23:16.394Z,10.86
2022-09-28T13:25:50.381Z,10.89
2022-09-28T13:28:20.595Z,10.94
2022-09-28T13:30:50.255Z,10.99
2022-09-28T13:33:36.724Z,11.01
2022-09-28T13:36:27.837Z,11.06
2022-09-28T13:38:56.165Z,11.06
2022-09-28T13:41:35.348Z,11.04
2022-09-28T13:44:10.661Z,11.00
2022-09-28T13:47:20.783Z,11.00
2022-09-28T13:50:16.301Z,11.00
2022-09-28T13:53:04.459Z,10.99
2022-09-28T13:56:04.341Z,10.96
2022-09-28T13:58:37.033Z,10.98
2022-09-28T14:01:10.574Z,11.00
2022-09-28T14:03:36.929Z,10.99
2022-09-28T14:06:24.752Z,11.03
2022-09-28T14:09:40.380Z,11.06
2022-09-28T14:12:34.391Z,11.05
2022-09-28T14:15:01.485Z,11.03
2022-09-28T14:17:28.030Z,11.07
2022-09-28T14:20:01.866Z,11.11
2022-09-28T14:22:40.514Z,11.11
2022-09-28T14:25:17.356Z,11.11
2022-09-28T14:27:51.280Z,11.10
2022-09-28T14:30:27.473Z,11.19
2022-09-28T14:32:58.400Z,11.22
2022-09-28T14:35:31.332Z,11.25
2022-09-28T14:38:24.980Z,11.22
2022-09-28T14:41:18.038Z,11.19
2022-09-28T14:43:44.386Z,11.18
2022-09-28T14:46:11.250Z,11.21
2022-09-28T14:48:48.722Z,11.25
2022-09-28T14:51:26.994Z,11.22
2022-09-28T14:54:00.218Z,11.19
2022-09-28T14:56:32.577Z,11.10
2022-09-28T14:59:00.290Z,11.10
2022-09-28T15:01:27.464Z,11.10
2022-09-28T15:04:04.440Z,11.08
2022-09-28T15:06:51.079Z,11.09
2022-09-28T15:09:29.742Z,11.06
2022-09-28T15:12:15.008Z,11.02
2022-09-28T15:14:49.845Z,11.04
2022-09-28T15:17:21.236Z,11.04
2022-09-28T15:19:53.772Z,11.05
2022-09-28T15:22:20.972Z,11.03
2022-09-28T15:25:01.353Z,11.02
2022-09-28T15:27:36.867Z,10.98
2022-09-28T15:30:31.759Z,10.92
2022-09-28T15:33:18.440Z,10.86
2022-09-28T15:36:01.921Z,10.82
2022-09-28T15:38:30.021Z,10.77
2022-09-28T15:40:57.345Z,10.77
2022-09-28T15:43:28.985Z,10.75
2022-09-28T15:46:07.048Z,10.74
2022-09-28T15:48:45.680Z,10.70
2022-09-28T15:51:13.089Z,10.70
2022-09-28T15:53:51.108Z,10.70
2022-09-28T15:56:17.530Z,10.65
2022-09-28T15:58:44.076Z,10.63
2022-09-28T16:01:36.569Z,10.61
2022-09-28T16:04:40.445Z,10.62
2022-09-28T16:07:13.065Z,10.60
2022-09-28T16:10:01.216Z,10.62
2022-09-28T16:12:42.011Z,10.61
2022-09-28T16:15:20.311Z,10.56
2022-09-28T16:17:53.994Z,10.53
2022-09-28T16:20:29.369Z,10.50
2022-09-28T16:22:59.360Z,10.48
2022-09-28T16:25:26.821Z,10.49
2022-09-28T16:27:55.130Z,10.45
2022-09-28T16:30:28.639Z,10.44
2022-09-28T16:33:01.740Z,10.39
2022-09-28T16:35:40.247Z,10.37
2022-09-28T16:38:13.655Z,10.35
2022-09-28T16:40:42.634Z,10.32
2022-09-28T16:43:18.743Z,10.29
2022-09-28T16:45:45.206Z,10.24
2022-09-28T16:48:19.322Z,10.19
2022-09-28T16:50:46.469Z,10.14
2022-09-28T16:53:34.152Z,10.09
2022-09-28T16:56:02.125Z,10.03
2022-09-28T16:58:28.943Z,9.97
2022-09-28T17:00:55.503Z,9.91
2022-09-28T17:03:23.434Z,9.81
2022-09-28T17:05:51.051Z,9.81
2022-09-28T17:08:20.095Z,9.80
2022-09-28T17:11:20.145Z,9.75
2022-09-28T17:13:38.991Z,9.73
2022-09-28T17:16:14.303Z,9.73
2022-09-28T17:18:41.191Z,9.71
2022-09-28T17:21:12.339Z,9.69
2022-09-28T17:23:38.967Z,9.67
2022-09-28T17:26:05.919Z,9.64
2022-09-28T17:28:34.460Z,9.61
2022-09-28T17:31:01.010Z,9.58
2022-09-28T17:33:28.186Z,9.56
2022-09-28T17:36:00.427Z,9.47
2022-09-28T17:38:27.789Z,9.47
2022-09-28T17:40:54.213Z,9.46
2022-09-28T17:43:23.572Z,9.42
2022-09-28T17:45:50.300Z,9.39
2022-09-28T17:48:19.327Z,9.33
2022-09-28T17:50:47.388Z,9.30
2022-09-28T17:53:14.322Z,9.26
2022-09-28T17:55:40.797Z,9.24
2022-09-28T17:58:21.811Z,9.18
2022-09-28T18:00:50.701Z,9.13
2022-09-28T18:03:20.465Z,9.08
2022-09-28T18:05:49.710Z,9.02
2022-09-28T18:08:19.322Z,9.02
2022-09-28T18:10:48.779Z,8.98
2022-09-28T18:13:15.131Z,8.93
2022-09-28T18:15:42.143Z,8.88
2022-09-28T18:18:09.773Z,8.87
2022-09-28T18:20:37.330Z,8.86
2022-09-28T18:23:03.724Z,8.85
2022-09-28T18:25:30.274Z,8.83
2022-09-28T18:27:57.513Z,8.80
2022-09-28T18:30:24.559Z,8.78
2022-09-28T18:32:51.002Z,8.79
2022-09-28T18:35:22.582Z,8.79
2022-09-28T18:37:49.839Z,8.76
2022-09-28T18:40:16.368Z,8.74
2022-09-28T18:42:42.833Z,8.73
2022-09-28T18:45:15.935Z,8.70
2022-09-28T18:47:42.269Z,8.66
2022-09-28T18:50:11.879Z,8.65
2022-09-28T18:52:42.850Z,8.64
2022-09-28T18:55:10.086Z,8.61
2022-09-28T18:57:36.818Z,8.58
2022-09-28T19:00:09.596Z,8.57
2022-09-28T19:02:36.864Z,8.53
2022-09-28T19:05:05.637Z,8.57
2022-09-28T19:07:33.560Z,8.56
2022-09-28T19:10:00.005Z,8.53
2022-09-28T19:12:26.390Z,8.52
2022-09-28T19:14:52.864Z,8.51
2022-09-28T19:17:20.375Z,8.50
2022-09-28T19:19:46.738Z,8.51
2022-09-28T19:22:13.214Z,8.46
2022-09-28T19:24:39.686Z,8.50
2022-09-28T19:27:06.155Z,8.49
2022-09-28T19:29:32.643Z,8.46
2022-09-28T19:31:59.077Z,8.44
2022-09-28T19:34:29.831Z,8.45
2022-09-28T19:36:56.724Z,8.45
2022-09-28T19:39:23.172Z,8.44
2022-09-28T19:41:51.147Z,8.46
2022-09-28T19:44:25.797Z,8.48
2022-09-28T19:46:55.081Z,8.45
2022-09-28T19:49:22.638Z,8.45
2022-09-28T19:52:11.605Z,8.45
2022-09-28T19:54:38.032Z,8.48
2022-09-28T19:57:08.346Z,8.53
2022-09-28T19:59:37.064Z,8.55
2022-09-28T20:02:05.357Z,8.54
2022-09-28T20:04:31.746Z,8.54
2022-09-28T20:06:58.132Z,8.55
2022-09-28T20:09:24.553Z,8.55
2022-09-28T20:11:51.848Z,8.56
2022-09-28T20:14:23.362Z,8.60
2022-09-28T20:16:52.221Z,8.59
2022-09-28T20:19:21.398Z,8.56
2022-09-28T20:21:50.956Z,8.55
2022-09-28T20:24:17.560Z,8.53
2022-09-28T20:26:45.632Z,8.52
2022-09-28T20:29:12.347Z,8.52
2022-09-28T20:31:38.782Z,8.60
2022-09-28T20:34:05.903Z,8.63
2022-09-28T20:36:32.730Z,8.64
2022-09-28T20:39:01.880Z,8.63
2022-09-28T20:41:33.337Z,8.67
2022-09-28T20:44:04.264Z,8.70
2022-09-28T20:46:32.005Z,8.68
2022-09-28T20:48:59.428Z,8.64
2022-09-28T20:51:25.855Z,8.69
2022-09-28T20:53:54.627Z,8.65
2022-09-28T20:56:30.433Z,8.63
2022-09-28T20:58:57.122Z,8.65
2022-09-28T21:01:25.517Z,8.63
2022-09-28T21:03:59.853Z,8.60
2022-09-28T21:06:29.122Z,8.55
2022-09-28T21:08:55.613Z,8.50
2022-09-28T21:11:24.297Z,8.44
2022-09-28T21:13:59.181Z,8.38
2022-09-28T21:16:27.774Z,8.32
2022-09-28T21:18:54.364Z,8.28
2022-09-28T21:21:22.293Z,8.25
2022-09-28T21:23:52.308Z,8.24
2022-09-28T21:26:30.000Z,8.23
2022-09-28T21:28:57.854Z,8.22
2022-09-28T21:31:29.168Z,8.20
2022-09-28T21:33:57.016Z,8.21
2022-09-28T21:36:23.474Z,8.22
2022-09-28T21:38:50.027Z,8.23
2022-09-28T21:41:17.089Z,8.21
2022-09-28T21:43:43.471Z,8.18
2022-09-28T21:46:10.345Z,8.14
2022-09-28T21:48:37.090Z,8.13
2022-09-28T21:51:06.108Z,8.12
2022-09-28T21:53:34.803Z,8.11
2022-09-28T21:56:01.977Z,8.10
2022-09-28T21:58:30.785Z,8.08
2022-09-28T22:01:02.760Z,8.06
2022-09-28T22:03:30.740Z,8.02
2022-09-28T22:05:57.268Z,7.95
2022-09-28T22:08:24.813Z,7.97
2022-09-28T22:11:18.698Z,7.97
2022-09-28T22:13:46.306Z,7.98
2022-09-28T22:16:14.657Z,7.94
2022-09-28T22:18:41.773Z,7.96
2022-09-28T22:21:12.273Z,7.97
2022-09-28T22:23:39.669Z,7.94
2022-09-28T22:26:10.715Z,7.93
2022-09-28T22:28:38.695Z,7.91
2022-09-28T22:31:05.857Z,7.89
2022-09-28T22:33:32.337Z,7.85
2022-09-28T22:35:58.677Z,7.83
2022-09-28T22:38:25.120Z,7.83
2022-09-28T22:40:54.511Z,7.79
2022-09-28T22:43:23.378Z,7.81
2022-09-28T22:45:50.382Z,7.82
2022-09-28T22:48:17.004Z,7.81
2022-09-28T22:50:50.744Z,7.78
2022-09-28T22:53:17.936Z,7.79
2022-09-28T22:55:46.972Z,7.81
2022-09-28T22:58:13.753Z,7.81
2022-09-28T23:00:40.271Z,7.80
2022-09-28T23:03:06.695Z,7.83
2022-09-28T23:05:33.186Z,7.86
2022-09-28T23:07:59.659Z,7.84
2022-09-28T23:10:26.043Z,7.81
2022-09-28T23:12:55.831Z,7.72
2022-09-28T23:15:22.824Z,7.60
2022-09-28T23:17:52.843Z,7.56
2022-09-28T23:20:23.557Z,7.51
2022-09-28T23:22:50.537Z,7.56
2022-09-28T23:25:18.257Z,7.58
2022-09-28T23:27:49.544Z,7.61
2022-09-28T23:30:17.606Z,7.64
2022-09-28T23:32:44.553Z,7.65
2022-09-28T23:35:11.489Z,7.66
2022-09-28T23:37:38.094Z,7.69
2022-09-28T23:40:06.032Z,7.68
2022-09-28T23:42:33.264Z,7.69
2022-09-28T23:44:59.629Z,7.67
2022-09-28T23:47:26.118Z,7.64
2022-09-28T23:49:52.551Z,7.67
2022-09-28T23:52:18.983Z,7.65
2022-09-28T23:54:45.498Z,7.63
2022-09-28T23:57:11.897Z,7.62
2022-09-28T23:59:38.611Z,7.63
